sensor_id;sensor_type;location;lat;lon;timestamp;P1;durP1;ratioP1;P2;durP2;ratioP2
70067;SDS011;57425;51.616;6.680;2023-05-10T00:00:33;7.68;;;4.32;;
70067;SDS011;57425;51.616;6.680;2023-05-10T00:02:59;9.98;;;4.07;;
70067;SDS011;57425;51.616;6.680;2023-05-10T00:05:24;6.93;;;4.03;;
70067;SDS011;57425;51.616;6.680;2023-05-10T00:07:50;7.35;;;4.53;;
70067;SDS011;57425;51.616;6.680;2023-05-10T00:10:16;6.90;;;3.75;;
70067;SDS011;57425;51.616;6.680;2023-05-10T00:12:41;7.55;;;4.40;;
70067;SDS011;57425;51.616;6.680;2023-05-10T00:15:07;6.55;;;4.30;;
70067;SDS011;57425;51.616;6.680;2023-05-10T00:17:33;11.20;;;3.90;;
70067;SDS011;57425;51.616;6.680;2023-05-10T00:19:59;5.45;;;3.90;;
70067;SDS011;57425;51.616;6.680;2023-05-10T00:22:25;10.15;;;3.97;;
70067;SDS011;57425;51.616;6.680;2023-05-10T00:24:51;6.45;;;4.07;;
70067;SDS011;57425;51.616;6.680;2023-05-10T00:27:16;5.72;;;4.30;;
70067;SDS011;57425;51.616;6.680;2023-05-10T00:29:42;7.57;;;4.20;;
70067;SDS011;57425;51.616;6.680;2023-05-10T00:32:08;8.07;;;4.75;;
70067;SDS011;57425;51.616;6.680;2023-05-10T00:34:34;6.97;;;4.53;;
70067;SDS011;57425;51.616;6.680;2023-05-10T00:36:59;7.25;;;4.47;;
70067;SDS011;57425;51.616;6.680;2023-05-10T00:39:25;6.85;;;4.55;;
70067;SDS011;57425;51.616;6.680;2023-05-10T00:41:53;7.38;;;4.20;;
70067;SDS011;57425;51.616;6.680;2023-05-10T00:44:19;7.95;;;4.97;;
70067;SDS011;57425;51.616;6.680;2023-05-10T00:46:45;13.95;;;5.18;;
70067;SDS011;57425;51.616;6.680;2023-05-10T00:49:12;8.68;;;5.22;;
70067;SDS011;57425;51.616;6.680;2023-05-10T00:51:38;10.40;;;5.30;;
70067;SDS011;57425;51.616;6.680;2023-05-10T00:54:04;8.02;;;4.93;;
70067;SDS011;57425;51.616;6.680;2023-05-10T00:56:30;6.82;;;4.35;;
70067;SDS011;57425;51.616;6.680;2023-05-10T00:58:56;9.90;;;5.80;;
70067;SDS011;57425;51.616;6.680;2023-05-10T01:01:22;13.93;;;5.45;;
70067;SDS011;57425;51.616;6.680;2023-05-10T01:03:48;9.35;;;5.78;;
70067;SDS011;57425;51.616;6.680;2023-05-10T01:06:14;11.05;;;5.32;;
70067;SDS011;57425;51.616;6.680;2023-05-10T01:08:39;9.13;;;5.30;;
70067;SDS011;57425;51.616;6.680;2023-05-10T01:11:06;10.15;;;6.13;;
70067;SDS011;57425;51.616;6.680;2023-05-10T01:13:37;12.27;;;5.93;;
70067;SDS011;57425;51.616;6.680;2023-05-10T01:16:04;9.80;;;5.97;;
70067;SDS011;57425;51.616;6.680;2023-05-10T01:18:33;8.02;;;4.80;;
70067;SDS011;57425;51.616;6.680;2023-05-10T01:34:59;9.68;;;5.57;;
70067;SDS011;57425;51.616;6.680;2023-05-10T01:37:31;11.90;;;6.57;;
70067;SDS011;57425;51.616;6.680;2023-05-10T01:42:59;12.40;;;5.10;;
70067;SDS011;57425;51.616;6.680;2023-05-10T01:45:33;21.25;;;5.88;;
70067;SDS011;57425;51.616;6.680;2023-05-10T01:48:06;9.70;;;5.38;;
70067;SDS011;57425;51.616;6.680;2023-05-10T01:50:34;12.88;;;6.72;;
70067;SDS011;57425;51.616;6.680;2023-05-10T01:53:02;13.95;;;6.90;;
70067;SDS011;57425;51.616;6.680;2023-05-10T01:55:30;14.55;;;6.97;;
70067;SDS011;57425;51.616;6.680;2023-05-10T01:58:18;12.38;;;5.97;;
70067;SDS011;57425;51.616;6.680;2023-05-10T02:00:46;23.70;;;6.47;;
70067;SDS011;57425;51.616;6.680;2023-05-10T02:03:13;11.02;;;6.03;;
70067;SDS011;57425;51.616;6.680;2023-05-10T02:05:41;8.85;;;5.20;;
70067;SDS011;57425;51.616;6.680;2023-05-10T02:08:09;11.77;;;6.90;;
70067;SDS011;57425;51.616;6.680;2023-05-10T02:10:36;14.55;;;6.82;;
70067;SDS011;57425;51.616;6.680;2023-05-10T02:13:04;14.75;;;7.38;;
70067;SDS011;57425;51.616;6.680;2023-05-10T02:15:32;15.38;;;8.90;;
70067;SDS011;57425;51.616;6.680;2023-05-10T02:17:59;13.88;;;7.70;;
70067;SDS011;57425;51.616;6.680;2023-05-10T02:20:26;11.93;;;7.25;;
70067;SDS011;57425;51.616;6.680;2023-05-10T02:22:52;12.50;;;6.97;;
70067;SDS011;57425;51.616;6.680;2023-05-10T02:25:21;14.55;;;7.43;;
70067;SDS011;57425;51.616;6.680;2023-05-10T02:27:48;16.08;;;8.02;;
70067;SDS011;57425;51.616;6.680;2023-05-10T02:30:15;14.23;;;6.90;;
70067;SDS011;57425;51.616;6.680;2023-05-10T02:32:41;15.75;;;8.30;;
70067;SDS011;57425;51.616;6.680;2023-05-10T02:35:08;15.57;;;8.23;;
70067;SDS011;57425;51.616;6.680;2023-05-10T02:37:36;18.70;;;8.82;;
70067;SDS011;57425;51.616;6.680;2023-05-10T02:40:03;17.02;;;8.15;;
70067;SDS011;57425;51.616;6.680;2023-05-10T02:42:32;14.75;;;8.15;;
70067;SDS011;57425;51.616;6.680;2023-05-10T02:45:02;15.43;;;8.35;;
70067;SDS011;57425;51.616;6.680;2023-05-10T02:47:32;13.70;;;7.10;;
70067;SDS011;57425;51.616;6.680;2023-05-10T02:49:57;16.67;;;8.55;;
70067;SDS011;57425;51.616;6.680;2023-05-10T02:52:25;45.95;;;9.43;;
70067;SDS011;57425;51.616;6.680;2023-05-10T02:54:56;14.15;;;8.25;;
70067;SDS011;57425;51.616;6.680;2023-05-10T02:57:28;18.23;;;7.88;;
70067;SDS011;57425;51.616;6.680;2023-05-10T02:59:58;16.83;;;8.85;;
70067;SDS011;57425;51.616;6.680;2023-05-10T03:02:25;12.82;;;7.75;;
70067;SDS011;57425;51.616;6.680;2023-05-10T03:04:52;14.77;;;8.35;;
70067;SDS011;57425;51.616;6.680;2023-05-10T03:07:18;13.95;;;8.52;;
70067;SDS011;57425;51.616;6.680;2023-05-10T03:09:46;15.65;;;8.32;;
70067;SDS011;57425;51.616;6.680;2023-05-10T03:12:33;13.00;;;8.00;;
70067;SDS011;57425;51.616;6.680;2023-05-10T03:18:02;13.23;;;8.00;;
70067;SDS011;57425;51.616;6.680;2023-05-10T03:25:55;24.80;;;9.60;;
70067;SDS011;57425;51.616;6.680;2023-05-10T03:28:21;16.55;;;9.13;;
70067;SDS011;57425;51.616;6.680;2023-05-10T03:30:50;16.88;;;9.98;;
70067;SDS011;57425;51.616;6.680;2023-05-10T03:33:18;17.50;;;9.13;;
70067;SDS011;57425;51.616;6.680;2023-05-10T03:35:44;23.15;;;9.93;;
70067;SDS011;57425;51.616;6.680;2023-05-10T03:38:11;16.88;;;9.60;;
70067;SDS011;57425;51.616;6.680;2023-05-10T03:40:39;20.38;;;10.18;;
70067;SDS011;57425;51.616;6.680;2023-05-10T03:43:05;20.92;;;11.25;;
70067;SDS011;57425;51.616;6.680;2023-05-10T03:45:31;19.48;;;9.30;;
70067;SDS011;57425;51.616;6.680;2023-05-10T03:47:57;25.48;;;12.15;;
70067;SDS011;57425;51.616;6.680;2023-05-10T03:50:23;18.85;;;11.07;;
70067;SDS011;57425;51.616;6.680;2023-05-10T03:52:49;22.88;;;11.05;;
70067;SDS011;57425;51.616;6.680;2023-05-10T03:55:15;22.85;;;11.68;;
70067;SDS011;57425;51.616;6.680;2023-05-10T03:57:41;20.08;;;11.35;;
70067;SDS011;57425;51.616;6.680;2023-05-10T04:00:07;18.10;;;9.27;;
70067;SDS011;57425;51.616;6.680;2023-05-10T04:02:33;30.63;;;11.57;;
70067;SDS011;57425;51.616;6.680;2023-05-10T04:04:59;23.23;;;8.85;;
70067;SDS011;57425;51.616;6.680;2023-05-10T04:07:25;22.27;;;10.70;;
70067;SDS011;57425;51.616;6.680;2023-05-10T04:09:50;22.85;;;11.13;;
70067;SDS011;57425;51.616;6.680;2023-05-10T04:12:16;23.20;;;11.75;;
70067;SDS011;57425;51.616;6.680;2023-05-10T04:14:41;21.42;;;9.93;;
70067;SDS011;57425;51.616;6.680;2023-05-10T04:17:07;25.52;;;11.70;;
70067;SDS011;57425;51.616;6.680;2023-05-10T04:19:33;28.63;;;12.93;;
70067;SDS011;57425;51.616;6.680;2023-05-10T04:21:58;23.60;;;11.45;;
70067;SDS011;57425;51.616;6.680;2023-05-10T04:24:24;28.27;;;12.60;;
70067;SDS011;57425;51.616;6.680;2023-05-10T04:26:50;28.98;;;11.68;;
70067;SDS011;57425;51.616;6.680;2023-05-10T04:29:16;25.65;;;12.77;;
70067;SDS011;57425;51.616;6.680;2023-05-10T04:31:42;28.67;;;13.68;;
70067;SDS011;57425;51.616;6.680;2023-05-10T04:34:07;22.60;;;11.98;;
70067;SDS011;57425;51.616;6.680;2023-05-10T04:36:33;30.33;;;12.82;;
70067;SDS011;57425;51.616;6.680;2023-05-10T04:39:00;32.22;;;13.32;;
70067;SDS011;57425;51.616;6.680;2023-05-10T04:41:27;24.98;;;11.95;;
70067;SDS011;57425;51.616;6.680;2023-05-10T04:43:53;23.98;;;12.02;;
70067;SDS011;57425;51.616;6.680;2023-05-10T04:46:19;29.20;;;12.88;;
70067;SDS011;57425;51.616;6.680;2023-05-10T04:48:44;27.83;;;12.63;;
70067;SDS011;57425;51.616;6.680;2023-05-10T04:51:10;30.77;;;14.73;;
70067;SDS011;57425;51.616;6.680;2023-05-10T04:53:36;28.85;;;12.93;;
70067;SDS011;57425;51.616;6.680;2023-05-10T04:56:02;32.83;;;14.73;;
70067;SDS011;57425;51.616;6.680;2023-05-10T04:58:27;28.70;;;14.05;;
70067;SDS011;57425;51.616;6.680;2023-05-10T05:00:53;35.10;;;16.25;;
70067;SDS011;57425;51.616;6.680;2023-05-10T05:03:19;35.10;;;15.13;;
70067;SDS011;57425;51.616;6.680;2023-05-10T05:05:44;30.15;;;14.40;;
70067;SDS011;57425;51.616;6.680;2023-05-10T05:08:10;31.42;;;13.98;;
70067;SDS011;57425;51.616;6.680;2023-05-10T05:10:35;31.58;;;15.20;;
70067;SDS011;57425;51.616;6.680;2023-05-10T05:13:01;38.08;;;15.40;;
70067;SDS011;57425;51.616;6.680;2023-05-10T05:15:27;33.00;;;16.23;;
70067;SDS011;57425;51.616;6.680;2023-05-10T05:17:52;31.77;;;15.52;;
70067;SDS011;57425;51.616;6.680;2023-05-10T05:20:18;37.95;;;17.05;;
70067;SDS011;57425;51.616;6.680;2023-05-10T05:22:44;34.60;;;16.05;;
70067;SDS011;57425;51.616;6.680;2023-05-10T05:25:10;31.75;;;16.02;;
70067;SDS011;57425;51.616;6.680;2023-05-10T05:27:36;32.40;;;15.35;;
70067;SDS011;57425;51.616;6.680;2023-05-10T05:30:02;34.05;;;15.88;;
70067;SDS011;57425;51.616;6.680;2023-05-10T05:32:29;29.23;;;14.63;;
70067;SDS011;57425;51.616;6.680;2023-05-10T05:34:55;40.60;;;16.23;;
70067;SDS011;57425;51.616;6.680;2023-05-10T05:37:21;30.70;;;16.05;;
70067;SDS011;57425;51.616;6.680;2023-05-10T05:39:47;28.35;;;14.02;;
70067;SDS011;57425;51.616;6.680;2023-05-10T05:42:13;36.85;;;15.18;;
70067;SDS011;57425;51.616;6.680;2023-05-10T05:44:41;27.48;;;14.13;;
70067;SDS011;57425;51.616;6.680;2023-05-10T05:47:07;34.80;;;16.42;;
70067;SDS011;57425;51.616;6.680;2023-05-10T05:49:32;37.45;;;16.83;;
70067;SDS011;57425;51.616;6.680;2023-05-10T05:51:58;38.95;;;16.65;;
70067;SDS011;57425;51.616;6.680;2023-05-10T05:54:28;35.67;;;15.48;;
70067;SDS011;57425;51.616;6.680;2023-05-10T05:56:54;43.42;;;17.35;;
70067;SDS011;57425;51.616;6.680;2023-05-10T05:59:24;32.60;;;14.90;;
70067;SDS011;57425;51.616;6.680;2023-05-10T06:01:50;35.58;;;15.05;;
70067;SDS011;57425;51.616;6.680;2023-05-10T06:04:16;31.15;;;15.40;;
70067;SDS011;57425;51.616;6.680;2023-05-10T06:06:42;43.60;;;17.55;;
70067;SDS011;57425;51.616;6.680;2023-05-10T06:09:08;34.85;;;17.02;;
70067;SDS011;57425;51.616;6.680;2023-05-10T06:11:34;39.10;;;17.00;;
70067;SDS011;57425;51.616;6.680;2023-05-10T06:14:00;37.42;;;16.05;;
70067;SDS011;57425;51.616;6.680;2023-05-10T06:16:26;39.78;;;17.00;;
70067;SDS011;57425;51.616;6.680;2023-05-10T06:18:52;37.20;;;15.57;;
70067;SDS011;57425;51.616;6.680;2023-05-10T06:21:18;36.05;;;16.50;;
70067;SDS011;57425;51.616;6.680;2023-05-10T06:23:43;36.40;;;17.50;;
70067;SDS011;57425;51.616;6.680;2023-05-10T06:26:09;40.47;;;17.33;;
70067;SDS011;57425;51.616;6.680;2023-05-10T06:28:35;42.83;;;18.50;;
70067;SDS011;57425;51.616;6.680;2023-05-10T06:31:03;35.55;;;17.35;;
70067;SDS011;57425;51.616;6.680;2023-05-10T06:33:29;40.35;;;16.65;;
70067;SDS011;57425;51.616;6.680;2023-05-10T06:35:55;36.28;;;16.73;;
70067;SDS011;57425;51.616;6.680;2023-05-10T06:38:20;38.33;;;16.95;;
70067;SDS011;57425;51.616;6.680;2023-05-10T06:40:46;38.70;;;17.52;;
70067;SDS011;57425;51.616;6.680;2023-05-10T06:43:12;40.42;;;17.30;;
70067;SDS011;57425;51.616;6.680;2023-05-10T06:45:37;40.47;;;17.50;;
70067;SDS011;57425;51.616;6.680;2023-05-10T06:48:03;43.25;;;18.52;;
70067;SDS011;57425;51.616;6.680;2023-05-10T06:50:28;36.63;;;17.60;;
70067;SDS011;57425;51.616;6.680;2023-05-10T06:52:54;44.38;;;18.52;;
70067;SDS011;57425;51.616;6.680;2023-05-10T06:55:20;48.65;;;18.92;;
70067;SDS011;57425;51.616;6.680;2023-05-10T06:57:46;38.90;;;18.45;;
70067;SDS011;57425;51.616;6.680;2023-05-10T07:00:12;39.83;;;18.25;;
70067;SDS011;57425;51.616;6.680;2023-05-10T07:02:39;42.58;;;16.95;;
70067;SDS011;57425;51.616;6.680;2023-05-10T07:05:04;37.22;;;17.13;;
70067;SDS011;57425;51.616;6.680;2023-05-10T07:07:31;40.05;;;18.40;;
70067;SDS011;57425;51.616;6.680;2023-05-10T07:09:56;41.17;;;18.27;;
70067;SDS011;57425;51.616;6.680;2023-05-10T07:12:22;40.70;;;18.00;;
70067;SDS011;57425;51.616;6.680;2023-05-10T07:14:49;42.85;;;17.95;;
70067;SDS011;57425;51.616;6.680;2023-05-10T07:17:14;44.08;;;18.48;;
70067;SDS011;57425;51.616;6.680;2023-05-10T07:19:40;42.40;;;19.05;;
70067;SDS011;57425;51.616;6.680;2023-05-10T07:22:05;34.80;;;15.15;;
70067;SDS011;57425;51.616;6.680;2023-05-10T07:24:32;35.45;;;16.90;;
70067;SDS011;57425;51.616;6.680;2023-05-10T07:26:58;46.30;;;19.77;;
70067;SDS011;57425;51.616;6.680;2023-05-10T07:29:24;47.33;;;18.65;;
70067;SDS011;57425;51.616;6.680;2023-05-10T07:31:49;38.38;;;17.02;;
70067;SDS011;57425;51.616;6.680;2023-05-10T07:34:15;44.53;;;18.38;;
70067;SDS011;57425;51.616;6.680;2023-05-10T07:36:41;32.83;;;16.20;;
70067;SDS011;57425;51.616;6.680;2023-05-10T07:39:06;35.47;;;16.98;;
70067;SDS011;57425;51.616;6.680;2023-05-10T07:41:32;43.13;;;15.73;;
70067;SDS011;57425;51.616;6.680;2023-05-10T07:43:58;39.78;;;16.17;;
70067;SDS011;57425;51.616;6.680;2023-05-10T07:46:23;41.60;;;15.95;;
70067;SDS011;57425;51.616;6.680;2023-05-10T07:48:49;34.65;;;15.77;;
70067;SDS011;57425;51.616;6.680;2023-05-10T07:51:14;29.40;;;13.70;;
70067;SDS011;57425;51.616;6.680;2023-05-10T07:53:40;38.47;;;15.55;;
70067;SDS011;57425;51.616;6.680;2023-05-10T07:58:54;38.50;;;16.60;;
70067;SDS011;57425;51.616;6.680;2023-05-10T08:01:23;33.22;;;15.93;;
70067;SDS011;57425;51.616;6.680;2023-05-10T08:03:49;32.30;;;14.77;;
70067;SDS011;57425;51.616;6.680;2023-05-10T08:06:16;35.80;;;15.50;;
70067;SDS011;57425;51.616;6.680;2023-05-10T08:08:43;37.58;;;16.20;;
70067;SDS011;57425;51.616;6.680;2023-05-10T08:11:13;37.90;;;15.90;;
70067;SDS011;57425;51.616;6.680;2023-05-10T08:13:40;33.03;;;15.57;;
70067;SDS011;57425;51.616;6.680;2023-05-10T08:16:05;33.55;;;16.35;;
70067;SDS011;57425;51.616;6.680;2023-05-10T08:18:32;39.08;;;16.33;;
70067;SDS011;57425;51.616;6.680;2023-05-10T08:20:57;36.60;;;15.43;;
70067;SDS011;57425;51.616;6.680;2023-05-10T08:23:23;43.53;;;14.57;;
70067;SDS011;57425;51.616;6.680;2023-05-10T08:25:49;38.95;;;15.52;;
70067;SDS011;57425;51.616;6.680;2023-05-10T08:28:14;31.58;;;14.30;;
70067;SDS011;57425;51.616;6.680;2023-05-10T08:30:40;37.90;;;15.48;;
70067;SDS011;57425;51.616;6.680;2023-05-10T08:33:05;38.05;;;15.45;;
70067;SDS011;57425;51.616;6.680;2023-05-10T08:35:31;37.45;;;14.15;;
70067;SDS011;57425;51.616;6.680;2023-05-10T08:37:58;37.35;;;15.50;;
70067;SDS011;57425;51.616;6.680;2023-05-10T08:40:23;40.00;;;15.45;;
70067;SDS011;57425;51.616;6.680;2023-05-10T08:42:55;35.10;;;13.75;;
70067;SDS011;57425;51.616;6.680;2023-05-10T08:45:25;27.88;;;13.57;;
70067;SDS011;57425;51.616;6.680;2023-05-10T08:47:52;41.30;;;14.82;;
70067;SDS011;57425;51.616;6.680;2023-05-10T08:50:19;30.42;;;12.70;;
70067;SDS011;57425;51.616;6.680;2023-05-10T08:52:46;40.72;;;15.05;;
70067;SDS011;57425;51.616;6.680;2023-05-10T08:55:17;36.70;;;13.77;;
70067;SDS011;57425;51.616;6.680;2023-05-10T08:57:43;41.42;;;14.85;;
70067;SDS011;57425;51.616;6.680;2023-05-10T09:00:09;40.10;;;15.27;;
70067;SDS011;57425;51.616;6.680;2023-05-10T09:02:35;30.95;;;15.23;;
70067;SDS011;57425;51.616;6.680;2023-05-10T09:05:02;39.40;;;14.98;;
70067;SDS011;57425;51.616;6.680;2023-05-10T09:07:29;42.08;;;15.85;;
70067;SDS011;57425;51.616;6.680;2023-05-10T09:09:55;33.50;;;13.80;;
70067;SDS011;57425;51.616;6.680;2023-05-10T09:12:22;35.00;;;13.75;;
70067;SDS011;57425;51.616;6.680;2023-05-10T09:14:48;32.15;;;12.98;;
70067;SDS011;57425;51.616;6.680;2023-05-10T09:17:15;32.10;;;13.88;;
70067;SDS011;57425;51.616;6.680;2023-05-10T09:19:41;32.88;;;14.27;;
70067;SDS011;57425;51.616;6.680;2023-05-10T09:22:06;26.73;;;12.75;;
70067;SDS011;57425;51.616;6.680;2023-05-10T09:24:32;31.38;;;14.38;;
70067;SDS011;57425;51.616;6.680;2023-05-10T09:26:58;28.05;;;13.57;;
70067;SDS011;57425;51.616;6.680;2023-05-10T09:29:23;33.10;;;13.00;;
70067;SDS011;57425;51.616;6.680;2023-05-10T09:31:50;30.70;;;12.68;;
70067;SDS011;57425;51.616;6.680;2023-05-10T09:34:17;26.50;;;13.38;;
70067;SDS011;57425;51.616;6.680;2023-05-10T09:36:54;31.70;;;13.82;;
70067;SDS011;57425;51.616;6.680;2023-05-10T09:39:21;31.77;;;13.07;;
70067;SDS011;57425;51.616;6.680;2023-05-10T09:41:59;32.25;;;13.18;;
70067;SDS011;57425;51.616;6.680;2023-05-10T09:44:33;27.20;;;13.20;;
70067;SDS011;57425;51.616;6.680;2023-05-10T09:47:00;27.98;;;12.68;;
70067;SDS011;57425;51.616;6.680;2023-05-10T09:49:27;33.55;;;12.63;;
70067;SDS011;57425;51.616;6.680;2023-05-10T09:52:03;25.85;;;12.90;;
70067;SDS011;57425;51.616;6.680;2023-05-10T09:54:30;28.42;;;12.45;;
70067;SDS011;57425;51.616;6.680;2023-05-10T09:56:56;29.45;;;13.18;;
70067;SDS011;57425;51.616;6.680;2023-05-10T09:59:22;38.00;;;13.43;;
70067;SDS011;57425;51.616;6.680;2023-05-10T10:01:51;26.00;;;12.10;;
70067;SDS011;57425;51.616;6.680;2023-05-10T10:04:17;27.95;;;10.85;;
70067;SDS011;57425;51.616;6.680;2023-05-10T10:06:44;25.02;;;11.45;;
70067;SDS011;57425;51.616;6.680;2023-05-10T10:09:10;23.42;;;10.98;;
70067;SDS011;57425;51.616;6.680;2023-05-10T10:11:36;29.70;;;11.15;;
70067;SDS011;57425;51.616;6.680;2023-05-10T10:14:02;22.55;;;10.07;;
70067;SDS011;57425;51.616;6.680;2023-05-10T10:16:29;18.67;;;10.45;;
70067;SDS011;57425;51.616;6.680;2023-05-10T10:18:56;28.98;;;10.65;;
70067;SDS011;57425;51.616;6.680;2023-05-10T10:21:22;23.77;;;11.23;;
70067;SDS011;57425;51.616;6.680;2023-05-10T10:23:48;24.33;;;10.80;;
70067;SDS011;57425;51.616;6.680;2023-05-10T10:26:15;21.95;;;11.65;;
70067;SDS011;57425;51.616;6.680;2023-05-10T10:32:29;27.60;;;10.60;;
70067;SDS011;57425;51.616;6.680;2023-05-10T10:34:39;23.60;;;10.43;;
70067;SDS011;57425;51.616;6.680;2023-05-10T10:37:05;24.13;;;11.45;;
70067;SDS011;57425;51.616;6.680;2023-05-10T10:39:31;18.88;;;9.85;;
70067;SDS011;57425;51.616;6.680;2023-05-10T10:41:58;28.73;;;11.52;;
70067;SDS011;57425;51.616;6.680;2023-05-10T10:47:06;20.73;;;10.48;;
70067;SDS011;57425;51.616;6.680;2023-05-10T11:02:48;24.90;;;12.68;;
70067;SDS011;57425;51.616;6.680;2023-05-10T11:05:44;27.17;;;11.07;;
70067;SDS011;57425;51.616;6.680;2023-05-10T11:13:28;23.40;;;12.75;;
70067;SDS011;57425;51.616;6.680;2023-05-10T11:15:58;23.17;;;11.68;;
70067;SDS011;57425;51.616;6.680;2023-05-10T11:18:35;27.10;;;12.52;;
70067;SDS011;57425;51.616;6.680;2023-05-10T11:21:02;27.83;;;12.05;;
70067;SDS011;57425;51.616;6.680;2023-05-10T11:24:12;29.08;;;12.95;;
70067;SDS011;57425;51.616;6.680;2023-05-10T11:26:23;25.85;;;13.40;;
70067;SDS011;57425;51.616;6.680;2023-05-10T11:28:51;34.13;;;13.23;;
70067;SDS011;57425;51.616;6.680;2023-05-10T11:31:23;23.70;;;12.75;;
70067;SDS011;57425;51.616;6.680;2023-05-10T11:33:52;24.23;;;12.93;;
70067;SDS011;57425;51.616;6.680;2023-05-10T11:36:19;22.27;;;11.52;;
70067;SDS011;57425;51.616;6.680;2023-05-10T11:38:51;26.45;;;12.38;;
70067;SDS011;57425;51.616;6.680;2023-05-10T11:41:18;25.85;;;12.13;;
70067;SDS011;57425;51.616;6.680;2023-05-10T11:43:51;24.67;;;11.88;;
70067;SDS011;57425;51.616;6.680;2023-05-10T11:46:19;32.83;;;13.10;;
70067;SDS011;57425;51.616;6.680;2023-05-10T11:48:47;22.10;;;11.73;;
70067;SDS011;57425;51.616;6.680;2023-05-10T11:51:19;23.98;;;10.73;;
70067;SDS011;57425;51.616;6.680;2023-05-10T11:53:46;20.73;;;10.65;;
70067;SDS011;57425;51.616;6.680;2023-05-10T11:56:11;15.27;;;9.13;;
70067;SDS011;57425;51.616;6.680;2023-05-10T11:58:37;21.50;;;10.40;;
70067;SDS011;57425;51.616;6.680;2023-05-10T12:01:04;21.92;;;8.70;;
70067;SDS011;57425;51.616;6.680;2023-05-10T12:03:31;18.33;;;9.82;;
70067;SDS011;57425;51.616;6.680;2023-05-10T12:05:58;24.58;;;10.32;;
70067;SDS011;57425;51.616;6.680;2023-05-10T12:08:27;18.48;;;9.52;;
70067;SDS011;57425;51.616;6.680;2023-05-10T12:11:03;22.55;;;9.95;;
70067;SDS011;57425;51.616;6.680;2023-05-10T12:13:30;20.55;;;9.57;;
70067;SDS011;57425;51.616;6.680;2023-05-10T12:15:59;23.30;;;9.40;;
70067;SDS011;57425;51.616;6.680;2023-05-10T12:18:38;15.48;;;9.10;;
70067;SDS011;57425;51.616;6.680;2023-05-10T12:21:05;18.20;;;9.23;;
70067;SDS011;57425;51.616;6.680;2023-05-10T12:23:30;26.38;;;9.57;;
70067;SDS011;57425;51.616;6.680;2023-05-10T12:26:01;17.17;;;9.13;;
70067;SDS011;57425;51.616;6.680;2023-05-10T12:28:29;17.15;;;8.98;;
70067;SDS011;57425;51.616;6.680;2023-05-10T12:30:57;14.73;;;8.38;;
70067;SDS011;57425;51.616;6.680;2023-05-10T12:33:23;16.08;;;8.68;;
70067;SDS011;57425;51.616;6.680;2023-05-10T12:35:49;15.20;;;8.35;;
70067;SDS011;57425;51.616;6.680;2023-05-10T12:38:35;19.58;;;8.35;;
70067;SDS011;57425;51.616;6.680;2023-05-10T12:41:06;17.52;;;8.50;;
70067;SDS011;57425;51.616;6.680;2023-05-10T12:43:33;16.10;;;7.95;;
70067;SDS011;57425;51.616;6.680;2023-05-10T12:46:09;15.77;;;7.97;;
70067;SDS011;57425;51.616;6.680;2023-05-10T12:48:37;15.55;;;7.22;;
70067;SDS011;57425;51.616;6.680;2023-05-10T12:51:03;15.35;;;7.18;;
70067;SDS011;57425;51.616;6.680;2023-05-10T12:53:30;16.08;;;8.02;;
70067;SDS011;57425;51.616;6.680;2023-05-10T12:55:56;16.15;;;7.70;;
70067;SDS011;57425;51.616;6.680;2023-05-10T12:58:22;14.13;;;8.05;;
70067;SDS011;57425;51.616;6.680;2023-05-10T13:00:47;16.55;;;7.68;;
70067;SDS011;57425;51.616;6.680;2023-05-10T13:03:13;16.95;;;7.93;;
70067;SDS011;57425;51.616;6.680;2023-05-10T13:05:40;12.32;;;6.82;;
70067;SDS011;57425;51.616;6.680;2023-05-10T13:08:06;14.05;;;6.80;;
70067;SDS011;57425;51.616;6.680;2023-05-10T13:10:32;14.05;;;7.68;;
70067;SDS011;57425;51.616;6.680;2023-05-10T13:12:58;15.75;;;7.60;;
70067;SDS011;57425;51.616;6.680;2023-05-10T13:15:23;13.32;;;7.47;;
70067;SDS011;57425;51.616;6.680;2023-05-10T13:17:49;16.23;;;7.88;;
70067;SDS011;57425;51.616;6.680;2023-05-10T13:20:15;13.00;;;6.80;;
70067;SDS011;57425;51.616;6.680;2023-05-10T13:22:42;16.33;;;7.38;;
70067;SDS011;57425;51.616;6.680;2023-05-10T13:25:09;17.48;;;7.22;;
70067;SDS011;57425;51.616;6.680;2023-05-10T13:27:35;13.93;;;8.07;;
70067;SDS011;57425;51.616;6.680;2023-05-10T13:30:02;17.90;;;7.85;;
70067;SDS011;57425;51.616;6.680;2023-05-10T13:32:29;12.90;;;6.35;;
70067;SDS011;57425;51.616;6.680;2023-05-10T13:34:55;11.25;;;5.80;;
70067;SDS011;57425;51.616;6.680;2023-05-10T13:37:20;12.00;;;6.15;;
70067;SDS011;57425;51.616;6.680;2023-05-10T13:39:46;14.32;;;5.55;;
70067;SDS011;57425;51.616;6.680;2023-05-10T13:42:12;11.95;;;6.25;;
70067;SDS011;57425;51.616;6.680;2023-05-10T13:44:38;13.55;;;6.72;;
70067;SDS011;57425;51.616;6.680;2023-05-10T13:47:04;11.15;;;6.22;;
70067;SDS011;57425;51.616;6.680;2023-05-10T13:49:30;12.55;;;6.88;;
70067;SDS011;57425;51.616;6.680;2023-05-10T13:51:56;15.23;;;6.20;;
70067;SDS011;57425;51.616;6.680;2023-05-10T13:54:21;10.40;;;6.13;;
70067;SDS011;57425;51.616;6.680;2023-05-10T13:56:48;15.55;;;5.88;;
70067;SDS011;57425;51.616;6.680;2023-05-10T13:59:14;13.50;;;6.68;;
70067;SDS011;57425;51.616;6.680;2023-05-10T14:01:42;13.35;;;5.38;;
70067;SDS011;57425;51.616;6.680;2023-05-10T14:04:08;9.48;;;4.85;;
70067;SDS011;57425;51.616;6.680;2023-05-10T14:06:35;9.23;;;4.72;;
70067;SDS011;57425;51.616;6.680;2023-05-10T14:09:01;10.35;;;5.10;;
70067;SDS011;57425;51.616;6.680;2023-05-10T14:11:30;8.27;;;4.72;;
70067;SDS011;57425;51.616;6.680;2023-05-10T14:13:55;8.75;;;5.05;;
70067;SDS011;57425;51.616;6.680;2023-05-10T14:16:21;10.13;;;5.20;;
70067;SDS011;57425;51.616;6.680;2023-05-10T14:18:47;9.68;;;5.53;;
70067;SDS011;57425;51.616;6.680;2023-05-10T14:21:12;14.55;;;5.65;;
70067;SDS011;57425;51.616;6.680;2023-05-10T14:23:38;8.52;;;5.00;;
70067;SDS011;57425;51.616;6.680;2023-05-10T14:26:04;8.20;;;5.78;;
70067;SDS011;57425;51.616;6.680;2023-05-10T14:28:30;10.05;;;5.65;;
70067;SDS011;57425;51.616;6.680;2023-05-10T14:30:56;13.77;;;5.78;;
70067;SDS011;57425;51.616;6.680;2023-05-10T14:33:21;11.43;;;5.50;;
70067;SDS011;57425;51.616;6.680;2023-05-10T14:35:47;14.43;;;5.57;;
70067;SDS011;57425;51.616;6.680;2023-05-10T14:38:13;12.27;;;6.80;;
70067;SDS011;57425;51.616;6.680;2023-05-10T14:40:39;12.02;;;4.95;;
70067;SDS011;57425;51.616;6.680;2023-05-10T14:43:04;8.45;;;5.78;;
70067;SDS011;57425;51.616;6.680;2023-05-10T14:45:30;12.15;;;5.80;;
70067;SDS011;57425;51.616;6.680;2023-05-10T14:47:56;12.95;;;6.78;;
70067;SDS011;57425;51.616;6.680;2023-05-10T14:50:22;9.10;;;5.32;;
70067;SDS011;57425;51.616;6.680;2023-05-10T14:52:48;9.07;;;4.95;;
70067;SDS011;57425;51.616;6.680;2023-05-10T14:55:15;14.38;;;6.45;;
70067;SDS011;57425;51.616;6.680;2023-05-10T14:57:40;8.30;;;5.30;;
70067;SDS011;57425;51.616;6.680;2023-05-10T15:00:06;8.30;;;5.38;;
70067;SDS011;57425;51.616;6.680;2023-05-10T15:02:32;9.23;;;5.80;;
70067;SDS011;57425;51.616;6.680;2023-05-10T15:04:58;8.02;;;5.00;;
70067;SDS011;57425;51.616;6.680;2023-05-10T15:07:24;10.50;;;3.42;;
70067;SDS011;57425;51.616;6.680;2023-05-10T15:09:50;2.78;;;1.88;;
70067;SDS011;57425;51.616;6.680;2023-05-10T15:12:17;4.97;;;2.05;;
70067;SDS011;57425;51.616;6.680;2023-05-10T15:14:43;4.30;;;1.80;;
70067;SDS011;57425;51.616;6.680;2023-05-10T15:17:09;3.42;;;1.70;;
70067;SDS011;57425;51.616;6.680;2023-05-10T15:19:35;9.40;;;2.90;;